sensor_id;sensor_type;location;lat;lon;timestamp;P1;durP1;ratioP1;P2;durP2;ratioP2
12707;SDS011;6418;50.824;4.718;2023-02-01T00:00:56;34.23;;;15.00;;
12707;SDS011;6418;50.824;4.718;2023-02-01T00:03:23;33.90;;;16.33;;
12707;SDS011;6418;50.824;4.718;2023-02-01T00:05:54;36.10;;;14.77;;
12707;SDS011;6418;50.824;4.718;2023-02-01T00:08:22;36.83;;;14.43;;
12707;SDS011;6418;50.824;4.718;2023-02-01T00:10:56;31.90;;;13.13;;
12707;SDS011;6418;50.824;4.718;2023-02-01T00:13:24;34.23;;;12.53;;
12707;SDS011;6418;50.824;4.718;2023-02-01T00:15:51;31.80;;;13.00;;
12707;SDS011;6418;50.824;4.718;2023-02-01T00:18:17;25.27;;;12.70;;
12707;SDS011;6418;50.824;4.718;2023-02-01T00:20:45;30.83;;;14.27;;
12707;SDS011;6418;50.824;4.718;2023-02-01T00:23:12;31.60;;;13.43;;
12707;SDS011;6418;50.824;4.718;2023-02-01T00:25:39;27.50;;;12.80;;
12707;SDS011;6418;50.824;4.718;2023-02-01T00:28:07;33.90;;;13.37;;
12707;SDS011;6418;50.824;4.718;2023-02-01T00:30:34;32.57;;;13.87;;
12707;SDS011;6418;50.824;4.718;2023-02-01T00:33:01;35.60;;;14.60;;
12707;SDS011;6418;50.824;4.718;2023-02-01T00:35:28;30.60;;;15.10;;
12707;SDS011;6418;50.824;4.718;2023-02-01T00:37:54;32.97;;;14.70;;
12707;SDS011;6418;50.824;4.718;2023-02-01T00:40:23;40.33;;;15.93;;
12707;SDS011;6418;50.824;4.718;2023-02-01T00:42:50;33.90;;;16.83;;
12707;SDS011;6418;50.824;4.718;2023-02-01T00:45:19;36.80;;;17.13;;
12707;SDS011;6418;50.824;4.718;2023-02-01T00:47:46;36.00;;;17.70;;
12707;SDS011;6418;50.824;4.718;2023-02-01T00:50:12;41.50;;;18.53;;
12707;SDS011;6418;50.824;4.718;2023-02-01T00:52:39;37.00;;;18.80;;
12707;SDS011;6418;50.824;4.718;2023-02-01T00:55:07;46.00;;;19.13;;
12707;SDS011;6418;50.824;4.718;2023-02-01T00:57:34;41.77;;;18.90;;
12707;SDS011;6418;50.824;4.718;2023-02-01T01:00:01;39.40;;;18.47;;
12707;SDS011;6418;50.824;4.718;2023-02-01T01:02:29;40.97;;;18.53;;
12707;SDS011;6418;50.824;4.718;2023-02-01T01:04:56;41.80;;;18.57;;
12707;SDS011;6418;50.824;4.718;2023-02-01T01:07:23;36.07;;;16.97;;
12707;SDS011;6418;50.824;4.718;2023-02-01T01:09:50;39.47;;;16.80;;
12707;SDS011;6418;50.824;4.718;2023-02-01T01:12:17;32.90;;;16.53;;
12707;SDS011;6418;50.824;4.718;2023-02-01T01:14:44;36.40;;;16.13;;
12707;SDS011;6418;50.824;4.718;2023-02-01T01:17:11;34.80;;;15.37;;
12707;SDS011;6418;50.824;4.718;2023-02-01T01:19:40;31.37;;;13.60;;
12707;SDS011;6418;50.824;4.718;2023-02-01T01:22:06;25.63;;;11.97;;
12707;SDS011;6418;50.824;4.718;2023-02-01T01:24:33;28.27;;;11.70;;
12707;SDS011;6418;50.824;4.718;2023-02-01T01:27:00;26.03;;;11.17;;
12707;SDS011;6418;50.824;4.718;2023-02-01T01:29:28;27.93;;;11.20;;
12707;SDS011;6418;50.824;4.718;2023-02-01T01:31:54;25.57;;;9.87;;
12707;SDS011;6418;50.824;4.718;2023-02-01T01:34:21;27.53;;;9.90;;
12707;SDS011;6418;50.824;4.718;2023-02-01T01:36:50;27.13;;;9.60;;
12707;SDS011;6418;50.824;4.718;2023-02-01T01:39:16;24.50;;;9.07;;
12707;SDS011;6418;50.824;4.718;2023-02-01T01:41:43;25.73;;;8.80;;
12707;SDS011;6418;50.824;4.718;2023-02-01T01:47:10;24.27;;;9.00;;
12707;SDS011;6418;50.824;4.718;2023-02-01T01:49:38;30.27;;;9.67;;
12707;SDS011;6418;50.824;4.718;2023-02-01T01:52:06;28.70;;;8.77;;
12707;SDS011;6418;50.824;4.718;2023-02-01T01:54:35;29.20;;;8.70;;
12707;SDS011;6418;50.824;4.718;2023-02-01T01:57:06;27.33;;;8.23;;
12707;SDS011;6418;50.824;4.718;2023-02-01T01:59:38;23.60;;;8.17;;
12707;SDS011;6418;50.824;4.718;2023-02-01T02:02:07;21.77;;;7.90;;
12707;SDS011;6418;50.824;4.718;2023-02-01T02:04:34;25.90;;;7.03;;
12707;SDS011;6418;50.824;4.718;2023-02-01T02:07:02;21.30;;;7.13;;
12707;SDS011;6418;50.824;4.718;2023-02-01T02:09:33;22.73;;;7.10;;
12707;SDS011;6418;50.824;4.718;2023-02-01T02:12:00;24.33;;;7.13;;
12707;SDS011;6418;50.824;4.718;2023-02-01T02:14:27;27.50;;;7.07;;
12707;SDS011;6418;50.824;4.718;2023-02-01T02:17:04;24.57;;;6.83;;
12707;SDS011;6418;50.824;4.718;2023-02-01T02:25:56;19.70;;;6.10;;
12707;SDS011;6418;50.824;4.718;2023-02-01T02:28:58;22.37;;;6.40;;
12707;SDS011;6418;50.824;4.718;2023-02-01T02:32:09;21.57;;;5.53;;
12707;SDS011;6418;50.824;4.718;2023-02-01T02:34:58;18.97;;;6.50;;
12707;SDS011;6418;50.824;4.718;2023-02-01T02:37:34;19.53;;;5.80;;
12707;SDS011;6418;50.824;4.718;2023-02-01T02:40:08;24.60;;;5.83;;
12707;SDS011;6418;50.824;4.718;2023-02-01T02:42:42;23.50;;;6.17;;
12707;SDS011;6418;50.824;4.718;2023-02-01T02:45:33;21.17;;;6.20;;
12707;SDS011;6418;50.824;4.718;2023-02-01T02:48:24;21.60;;;5.57;;
12707;SDS011;6418;50.824;4.718;2023-02-01T02:50:58;22.87;;;5.80;;
12707;SDS011;6418;50.824;4.718;2023-02-01T02:53:46;19.27;;;5.53;;
12707;SDS011;6418;50.824;4.718;2023-02-01T02:56:36;22.80;;;6.13;;
12707;SDS011;6418;50.824;4.718;2023-02-01T02:59:22;26.23;;;5.70;;
12707;SDS011;6418;50.824;4.718;2023-02-01T03:02:09;19.23;;;5.33;;
12707;SDS011;6418;50.824;4.718;2023-02-01T03:04:55;18.70;;;5.40;;
12707;SDS011;6418;50.824;4.718;2023-02-01T03:10:25;17.13;;;5.40;;
12707;SDS011;6418;50.824;4.718;2023-02-01T03:13:00;21.43;;;5.40;;
12707;SDS011;6418;50.824;4.718;2023-02-01T03:15:32;20.43;;;5.90;;
12707;SDS011;6418;50.824;4.718;2023-02-01T03:18:03;19.80;;;6.03;;
12707;SDS011;6418;50.824;4.718;2023-02-01T03:20:36;20.27;;;5.27;;
12707;SDS011;6418;50.824;4.718;2023-02-01T03:23:08;23.07;;;5.73;;
12707;SDS011;6418;50.824;4.718;2023-02-01T03:25:36;20.57;;;5.40;;
12707;SDS011;6418;50.824;4.718;2023-02-01T03:28:04;21.97;;;6.90;;
12707;SDS011;6418;50.824;4.718;2023-02-01T03:30:35;21.03;;;5.50;;
12707;SDS011;6418;50.824;4.718;2023-02-01T03:33:06;22.73;;;6.00;;
12707;SDS011;6418;50.824;4.718;2023-02-01T03:35:40;21.97;;;5.90;;
12707;SDS011;6418;50.824;4.718;2023-02-01T03:38:14;20.47;;;5.73;;
12707;SDS011;6418;50.824;4.718;2023-02-01T03:40:48;20.40;;;5.63;;
12707;SDS011;6418;50.824;4.718;2023-02-01T03:43:20;21.60;;;6.23;;
12707;SDS011;6418;50.824;4.718;2023-02-01T03:45:50;20.40;;;5.23;;
12707;SDS011;6418;50.824;4.718;2023-02-01T03:48:20;20.23;;;6.17;;
12707;SDS011;6418;50.824;4.718;2023-02-01T03:50:52;19.53;;;5.37;;
12707;SDS011;6418;50.824;4.718;2023-02-01T03:53:23;21.20;;;5.80;;
12707;SDS011;6418;50.824;4.718;2023-02-01T03:55:51;21.53;;;5.83;;
12707;SDS011;6418;50.824;4.718;2023-02-01T03:58:20;19.30;;;5.50;;
12707;SDS011;6418;50.824;4.718;2023-02-01T04:00:50;22.87;;;5.30;;
12707;SDS011;6418;50.824;4.718;2023-02-01T04:03:19;18.13;;;5.43;;
12707;SDS011;6418;50.824;4.718;2023-02-01T04:05:46;18.03;;;5.67;;
12707;SDS011;6418;50.824;4.718;2023-02-01T04:08:13;21.87;;;5.43;;
12707;SDS011;6418;50.824;4.718;2023-02-01T04:10:42;18.07;;;5.27;;
12707;SDS011;6418;50.824;4.718;2023-02-01T04:13:09;22.93;;;6.27;;
12707;SDS011;6418;50.824;4.718;2023-02-01T04:15:36;23.90;;;6.10;;
12707;SDS011;6418;50.824;4.718;2023-02-01T04:18:03;20.80;;;5.73;;
12707;SDS011;6418;50.824;4.718;2023-02-01T04:20:30;23.17;;;5.87;;
12707;SDS011;6418;50.824;4.718;2023-02-01T04:22:57;20.60;;;5.50;;
12707;SDS011;6418;50.824;4.718;2023-02-01T04:25:24;22.93;;;5.97;;
12707;SDS011;6418;50.824;4.718;2023-02-01T04:27:52;22.37;;;5.50;;
12707;SDS011;6418;50.824;4.718;2023-02-01T04:30:19;23.47;;;6.47;;
12707;SDS011;6418;50.824;4.718;2023-02-01T04:32:46;21.63;;;5.60;;
12707;SDS011;6418;50.824;4.718;2023-02-01T04:35:13;20.70;;;6.17;;
12707;SDS011;6418;50.824;4.718;2023-02-01T04:37:39;26.20;;;5.83;;
12707;SDS011;6418;50.824;4.718;2023-02-01T04:40:07;20.27;;;5.67;;
12707;SDS011;6418;50.824;4.718;2023-02-01T04:42:35;18.80;;;5.43;;
12707;SDS011;6418;50.824;4.718;2023-02-01T04:45:04;24.30;;;6.87;;
12707;SDS011;6418;50.824;4.718;2023-02-01T04:47:31;26.57;;;6.13;;
12707;SDS011;6418;50.824;4.718;2023-02-01T04:49:58;25.10;;;6.10;;
12707;SDS011;6418;50.824;4.718;2023-02-01T04:52:25;28.07;;;5.90;;
12707;SDS011;6418;50.824;4.718;2023-02-01T04:54:53;22.10;;;5.30;;
12707;SDS011;6418;50.824;4.718;2023-02-01T04:57:22;18.70;;;5.40;;
12707;SDS011;6418;50.824;4.718;2023-02-01T04:59:49;21.93;;;5.67;;
12707;SDS011;6418;50.824;4.718;2023-02-01T05:02:17;23.00;;;5.80;;
12707;SDS011;6418;50.824;4.718;2023-02-01T05:04:44;24.53;;;5.80;;
12707;SDS011;6418;50.824;4.718;2023-02-01T05:07:11;23.40;;;5.67;;
12707;SDS011;6418;50.824;4.718;2023-02-01T05:09:38;27.40;;;6.47;;
12707;SDS011;6418;50.824;4.718;2023-02-01T05:12:05;23.37;;;6.30;;
12707;SDS011;6418;50.824;4.718;2023-02-01T05:14:50;29.10;;;6.60;;
12707;SDS011;6418;50.824;4.718;2023-02-01T05:17:18;24.63;;;6.33;;
12707;SDS011;6418;50.824;4.718;2023-02-01T05:19:45;25.13;;;6.03;;
12707;SDS011;6418;50.824;4.718;2023-02-01T05:22:12;22.60;;;5.83;;
12707;SDS011;6418;50.824;4.718;2023-02-01T05:24:39;20.57;;;5.63;;
12707;SDS011;6418;50.824;4.718;2023-02-01T05:27:06;28.83;;;5.93;;
12707;SDS011;6418;50.824;4.718;2023-02-01T05:29:32;24.90;;;6.60;;
12707;SDS011;6418;50.824;4.718;2023-02-01T05:31:59;26.57;;;7.00;;
12707;SDS011;6418;50.824;4.718;2023-02-01T05:34:28;21.20;;;5.93;;
12707;SDS011;6418;50.824;4.718;2023-02-01T05:36:55;22.13;;;5.83;;
12707;SDS011;6418;50.824;4.718;2023-02-01T05:39:22;28.53;;;6.07;;
12707;SDS011;6418;50.824;4.718;2023-02-01T05:41:48;24.67;;;5.43;;
12707;SDS011;6418;50.824;4.718;2023-02-01T05:44:15;22.90;;;6.00;;
12707;SDS011;6418;50.824;4.718;2023-02-01T05:46:42;24.27;;;5.87;;
12707;SDS011;6418;50.824;4.718;2023-02-01T05:49:09;26.60;;;6.10;;
12707;SDS011;6418;50.824;4.718;2023-02-01T05:51:37;24.70;;;5.90;;
12707;SDS011;6418;50.824;4.718;2023-02-01T05:54:04;24.43;;;5.70;;
12707;SDS011;6418;50.824;4.718;2023-02-01T05:56:31;23.33;;;6.23;;
12707;SDS011;6418;50.824;4.718;2023-02-01T05:59:06;23.50;;;5.70;;
12707;SDS011;6418;50.824;4.718;2023-02-01T06:01:33;26.03;;;6.40;;
12707;SDS011;6418;50.824;4.718;2023-02-01T06:04:00;29.80;;;6.20;;
12707;SDS011;6418;50.824;4.718;2023-02-01T06:06:27;25.97;;;5.83;;
12707;SDS011;6418;50.824;4.718;2023-02-01T06:08:55;22.13;;;6.03;;
12707;SDS011;6418;50.824;4.718;2023-02-01T06:11:22;21.80;;;5.70;;
12707;SDS011;6418;50.824;4.718;2023-02-01T06:13:49;29.40;;;6.00;;
12707;SDS011;6418;50.824;4.718;2023-02-01T06:16:16;24.53;;;5.60;;
12707;SDS011;6418;50.824;4.718;2023-02-01T06:18:42;22.43;;;5.93;;
12707;SDS011;6418;50.824;4.718;2023-02-01T06:21:17;19.17;;;5.80;;
12707;SDS011;6418;50.824;4.718;2023-02-01T06:23:48;23.43;;;6.00;;
12707;SDS011;6418;50.824;4.718;2023-02-01T06:26:25;22.90;;;5.73;;
12707;SDS011;6418;50.824;4.718;2023-02-01T06:28:53;27.17;;;5.83;;
12707;SDS011;6418;50.824;4.718;2023-02-01T06:31:21;27.47;;;6.07;;
12707;SDS011;6418;50.824;4.718;2023-02-01T06:33:48;27.00;;;5.90;;
12707;SDS011;6418;50.824;4.718;2023-02-01T06:36:15;22.03;;;6.43;;
12707;SDS011;6418;50.824;4.718;2023-02-01T06:38:45;24.87;;;5.83;;
12707;SDS011;6418;50.824;4.718;2023-02-01T06:41:12;25.00;;;5.83;;
12707;SDS011;6418;50.824;4.718;2023-02-01T06:43:41;24.17;;;5.50;;
12707;SDS011;6418;50.824;4.718;2023-02-01T06:46:09;19.10;;;6.00;;
12707;SDS011;6418;50.824;4.718;2023-02-01T06:48:38;22.50;;;5.20;;
12707;SDS011;6418;50.824;4.718;2023-02-01T06:51:06;24.43;;;6.10;;
12707;SDS011;6418;50.824;4.718;2023-02-01T06:53:42;21.87;;;5.57;;
12707;SDS011;6418;50.824;4.718;2023-02-01T06:56:09;22.63;;;5.87;;
12707;SDS011;6418;50.824;4.718;2023-02-01T06:58:36;22.27;;;6.03;;
12707;SDS011;6418;50.824;4.718;2023-02-01T07:01:06;30.17;;;5.70;;
12707;SDS011;6418;50.824;4.718;2023-02-01T07:03:33;22.90;;;5.60;;
12707;SDS011;6418;50.824;4.718;2023-02-01T07:06:02;25.90;;;6.00;;
12707;SDS011;6418;50.824;4.718;2023-02-01T07:08:33;19.87;;;6.57;;
12707;SDS011;6418;50.824;4.718;2023-02-01T07:11:04;25.10;;;6.00;;
12707;SDS011;6418;50.824;4.718;2023-02-01T07:13:31;27.97;;;6.10;;
12707;SDS011;6418;50.824;4.718;2023-02-01T07:16:01;24.00;;;5.87;;
12707;SDS011;6418;50.824;4.718;2023-02-01T07:18:31;28.00;;;8.03;;
12707;SDS011;6418;50.824;4.718;2023-02-01T07:20:58;27.30;;;6.97;;
12707;SDS011;6418;50.824;4.718;2023-02-01T07:23:33;28.53;;;7.13;;
12707;SDS011;6418;50.824;4.718;2023-02-01T07:26:01;20.43;;;6.40;;
12707;SDS011;6418;50.824;4.718;2023-02-01T07:28:31;25.87;;;6.50;;
12707;SDS011;6418;50.824;4.718;2023-02-01T07:31:03;26.87;;;7.23;;
12707;SDS011;6418;50.824;4.718;2023-02-01T07:33:31;24.27;;;6.80;;
12707;SDS011;6418;50.824;4.718;2023-02-01T07:36:00;25.23;;;6.90;;
12707;SDS011;6418;50.824;4.718;2023-02-01T07:38:35;24.83;;;6.77;;
12707;SDS011;6418;50.824;4.718;2023-02-01T07:41:02;25.87;;;7.33;;
12707;SDS011;6418;50.824;4.718;2023-02-01T07:43:33;24.63;;;6.40;;
12707;SDS011;6418;50.824;4.718;2023-02-01T07:46:00;25.43;;;6.93;;
12707;SDS011;6418;50.824;4.718;2023-02-01T07:48:28;23.20;;;6.47;;
12707;SDS011;6418;50.824;4.718;2023-02-01T07:51:00;22.70;;;6.87;;
12707;SDS011;6418;50.824;4.718;2023-02-01T07:53:29;23.47;;;7.03;;
12707;SDS011;6418;50.824;4.718;2023-02-01T07:55:56;29.43;;;6.80;;
12707;SDS011;6418;50.824;4.718;2023-02-01T07:58:24;25.67;;;6.50;;
12707;SDS011;6418;50.824;4.718;2023-02-01T08:00:51;25.43;;;6.93;;
12707;SDS011;6418;50.824;4.718;2023-02-01T08:03:35;32.77;;;6.83;;
12707;SDS011;6418;50.824;4.718;2023-02-01T08:06:04;26.93;;;6.67;;
12707;SDS011;6418;50.824;4.718;2023-02-01T08:08:31;23.47;;;6.40;;
12707;SDS011;6418;50.824;4.718;2023-02-01T08:10:58;28.80;;;6.33;;
12707;SDS011;6418;50.824;4.718;2023-02-01T08:13:28;25.00;;;6.20;;
12707;SDS011;6418;50.824;4.718;2023-02-01T08:15:58;27.57;;;6.53;;
12707;SDS011;6418;50.824;4.718;2023-02-01T08:18:27;25.57;;;6.37;;
12707;SDS011;6418;50.824;4.718;2023-02-01T08:21:02;24.80;;;7.17;;
12707;SDS011;6418;50.824;4.718;2023-02-01T08:23:33;22.43;;;6.53;;
12707;SDS011;6418;50.824;4.718;2023-02-01T08:26:07;23.13;;;6.70;;
12707;SDS011;6418;50.824;4.718;2023-02-01T08:28:34;23.37;;;6.43;;
12707;SDS011;6418;50.824;4.718;2023-02-01T08:31:05;19.80;;;6.63;;
12707;SDS011;6418;50.824;4.718;2023-02-01T08:33:33;24.77;;;6.23;;
12707;SDS011;6418;50.824;4.718;2023-02-01T08:36:01;24.60;;;6.83;;
12707;SDS011;6418;50.824;4.718;2023-02-01T08:38:30;20.97;;;5.90;;
12707;SDS011;6418;50.824;4.718;2023-02-01T08:40:57;23.13;;;6.20;;
12707;SDS011;6418;50.824;4.718;2023-02-01T08:43:31;21.60;;;6.10;;
12707;SDS011;6418;50.824;4.718;2023-02-01T08:45:58;24.57;;;6.13;;
12707;SDS011;6418;50.824;4.718;2023-02-01T08:48:27;27.13;;;5.63;;
12707;SDS011;6418;50.824;4.718;2023-02-01T08:50:54;27.53;;;6.47;;
12707;SDS011;6418;50.824;4.718;2023-02-01T08:53:21;23.07;;;6.00;;
12707;SDS011;6418;50.824;4.718;2023-02-01T08:55:49;23.90;;;7.00;;
12707;SDS011;6418;50.824;4.718;2023-02-01T08:58:16;27.10;;;6.10;;
12707;SDS011;6418;50.824;4.718;2023-02-01T09:00:43;24.20;;;5.83;;
12707;SDS011;6418;50.824;4.718;2023-02-01T09:03:10;23.30;;;5.97;;
12707;SDS011;6418;50.824;4.718;2023-02-01T09:05:38;23.80;;;5.60;;
12707;SDS011;6418;50.824;4.718;2023-02-01T09:08:05;22.93;;;5.63;;
12707;SDS011;6418;50.824;4.718;2023-02-01T09:10:32;23.53;;;6.10;;
12707;SDS011;6418;50.824;4.718;2023-02-01T09:13:01;24.67;;;5.83;;
12707;SDS011;6418;50.824;4.718;2023-02-01T09:15:29;30.23;;;6.47;;
12707;SDS011;6418;50.824;4.718;2023-02-01T09:17:56;23.43;;;6.00;;
12707;SDS011;6418;50.824;4.718;2023-02-01T09:20:23;23.27;;;6.10;;
12707;SDS011;6418;50.824;4.718;2023-02-01T09:22:50;25.83;;;6.43;;
12707;SDS011;6418;50.824;4.718;2023-02-01T09:25:17;24.73;;;5.87;;
12707;SDS011;6418;50.824;4.718;2023-02-01T09:27:44;24.13;;;6.20;;
12707;SDS011;6418;50.824;4.718;2023-02-01T09:30:13;23.13;;;5.77;;
12707;SDS011;6418;50.824;4.718;2023-02-01T09:32:40;21.70;;;6.40;;
12707;SDS011;6418;50.824;4.718;2023-02-01T09:35:07;21.30;;;5.50;;
12707;SDS011;6418;50.824;4.718;2023-02-01T09:37:34;19.90;;;6.40;;
12707;SDS011;6418;50.824;4.718;2023-02-01T09:40:02;22.60;;;6.83;;
12707;SDS011;6418;50.824;4.718;2023-02-01T09:45:24;22.47;;;6.20;;
12707;SDS011;6418;50.824;4.718;2023-02-01T09:47:59;22.33;;;6.33;;
12707;SDS011;6418;50.824;4.718;2023-02-01T09:50:31;23.13;;;5.50;;
12707;SDS011;6418;50.824;4.718;2023-02-01T09:53:03;22.80;;;6.63;;
12707;SDS011;6418;50.824;4.718;2023-02-01T09:55:34;23.03;;;6.87;;
12707;SDS011;6418;50.824;4.718;2023-02-01T09:58:06;21.17;;;5.77;;
12707;SDS011;6418;50.824;4.718;2023-02-01T10:00:39;24.67;;;6.60;;
12707;SDS011;6418;50.824;4.718;2023-02-01T10:03:10;21.50;;;6.17;;
12707;SDS011;6418;50.824;4.718;2023-02-01T10:05:43;19.77;;;6.10;;
12707;SDS011;6418;50.824;4.718;2023-02-01T10:08:26;20.23;;;5.73;;
12707;SDS011;6418;50.824;4.718;2023-02-01T10:11:09;24.23;;;5.57;;
12707;SDS011;6418;50.824;4.718;2023-02-01T10:14:13;24.93;;;5.67;;
12707;SDS011;6418;50.824;4.718;2023-02-01T10:17:04;26.87;;;6.17;;
12707;SDS011;6418;50.824;4.718;2023-02-01T10:19:39;24.90;;;6.00;;
12707;SDS011;6418;50.824;4.718;2023-02-01T10:22:18;20.20;;;5.17;;
12707;SDS011;6418;50.824;4.718;2023-02-01T10:24:56;25.83;;;5.77;;
12707;SDS011;6418;50.824;4.718;2023-02-01T10:27:33;21.90;;;5.40;;
12707;SDS011;6418;50.824;4.718;2023-02-01T10:30:05;24.53;;;6.60;;
12707;SDS011;6418;50.824;4.718;2023-02-01T10:32:42;22.60;;;5.67;;
12707;SDS011;6418;50.824;4.718;2023-02-01T10:35:13;19.73;;;5.70;;
12707;SDS011;6418;50.824;4.718;2023-02-01T10:37:42;19.67;;;5.50;;
12707;SDS011;6418;50.824;4.718;2023-02-01T10:40:19;17.07;;;5.30;;
12707;SDS011;6418;50.824;4.718;2023-02-01T10:42:48;19.97;;;5.67;;
12707;SDS011;6418;50.824;4.718;2023-02-01T10:45:17;24.57;;;5.37;;
12707;SDS011;6418;50.824;4.718;2023-02-01T10:47:49;20.00;;;5.20;;
12707;SDS011;6418;50.824;4.718;2023-02-01T10:50:24;21.07;;;5.67;;
12707;SDS011;6418;50.824;4.718;2023-02-01T10:53:00;22.10;;;5.17;;
12707;SDS011;6418;50.824;4.718;2023-02-01T10:55:38;18.87;;;5.47;;
12707;SDS011;6418;50.824;4.718;2023-02-01T10:58:06;20.10;;;5.07;;
12707;SDS011;6418;50.824;4.718;2023-02-01T11:00:44;17.93;;;4.80;;
12707;SDS011;6418;50.824;4.718;2023-02-01T11:03:22;19.03;;;5.00;;
12707;SDS011;6418;50.824;4.718;2023-02-01T11:06:02;21.37;;;5.50;;
12707;SDS011;6418;50.824;4.718;2023-02-01T11:08:45;17.93;;;5.27;;
12707;SDS011;6418;50.824;4.718;2023-02-01T11:11:20;21.47;;;5.70;;
12707;SDS011;6418;50.824;4.718;2023-02-01T11:13:51;21.10;;;5.17;;
12707;SDS011;6418;50.824;4.718;2023-02-01T11:16:28;17.73;;;4.73;;
12707;SDS011;6418;50.824;4.718;2023-02-01T11:19:02;18.60;;;4.87;;
12707;SDS011;6418;50.824;4.718;2023-02-01T11:21:30;15.67;;;4.30;;
12707;SDS011;6418;50.824;4.718;2023-02-01T11:24:00;16.17;;;4.67;;
12707;SDS011;6418;50.824;4.718;2023-02-01T11:26:28;18.70;;;5.03;;
12707;SDS011;6418;50.824;4.718;2023-02-01T11:28:58;17.43;;;5.20;;
12707;SDS011;6418;50.824;4.718;2023-02-01T11:31:29;21.40;;;4.90;;
12707;SDS011;6418;50.824;4.718;2023-02-01T11:33:58;17.57;;;4.93;;
12707;SDS011;6418;50.824;4.718;2023-02-01T11:36:35;16.27;;;4.30;;
12707;SDS011;6418;50.824;4.718;2023-02-01T11:39:14;18.23;;;5.03;;
12707;SDS011;6418;50.824;4.718;2023-02-01T11:41:55;14.60;;;4.60;;
12707;SDS011;6418;50.824;4.718;2023-02-01T11:44:34;22.23;;;4.80;;
12707;SDS011;6418;50.824;4.718;2023-02-01T11:50:12;16.47;;;4.70;;
12707;SDS011;6418;50.824;4.718;2023-02-01T11:52:50;17.77;;;4.83;;
12707;SDS011;6418;50.824;4.718;2023-02-01T11:58:34;18.13;;;4.90;;
12707;SDS011;6418;50.824;4.718;2023-02-01T12:01:26;14.37;;;4.33;;
12707;SDS011;6418;50.824;4.718;2023-02-01T12:04:14;19.17;;;4.57;;
12707;SDS011;6418;50.824;4.718;2023-02-01T12:07:11;17.07;;;4.70;;
12707;SDS011;6418;50.824;4.718;2023-02-01T12:09:52;15.13;;;4.20;;
12707;SDS011;6418;50.824;4.718;2023-02-01T12:12:30;17.83;;;4.70;;
12707;SDS011;6418;50.824;4.718;2023-02-01T12:18:17;14.20;;;4.00;;
12707;SDS011;6418;50.824;4.718;2023-02-01T12:21:18;20.27;;;4.90;;
12707;SDS011;6418;50.824;4.718;2023-02-01T12:24:00;14.67;;;4.57;;
12707;SDS011;6418;50.824;4.718;2023-02-01T12:26:47;18.63;;;4.70;;
12707;SDS011;6418;50.824;4.718;2023-02-01T12:29:31;15.73;;;4.73;;
12707;SDS011;6418;50.824;4.718;2023-02-01T12:32:16;15.53;;;4.57;;
12707;SDS011;6418;50.824;4.718;2023-02-01T12:34:55;14.13;;;4.03;;
12707;SDS011;6418;50.824;4.718;2023-02-01T12:37:46;13.33;;;4.20;;
12707;SDS011;6418;50.824;4.718;2023-02-01T12:40:26;12.83;;;4.07;;
12707;SDS011;6418;50.824;4.718;2023-02-01T12:43:03;12.90;;;4.20;;
12707;SDS011;6418;50.824;4.718;2023-02-01T12:45:37;14.70;;;4.50;;
12707;SDS011;6418;50.824;4.718;2023-02-01T12:48:11;16.60;;;3.90;;
12707;SDS011;6418;50.824;4.718;2023-02-01T12:50:50;14.63;;;4.23;;
12707;SDS011;6418;50.824;4.718;2023-02-01T12:53:22;15.07;;;3.97;;
12707;SDS011;6418;50.824;4.718;2023-02-01T12:55:53;15.50;;;3.80;;
12707;SDS011;6418;50.824;4.718;2023-02-01T12:58:26;15.20;;;4.47;;
12707;SDS011;6418;50.824;4.718;2023-02-01T13:00:58;15.37;;;4.40;;
12707;SDS011;6418;50.824;4.718;2023-02-01T13:03:33;13.13;;;3.77;;
12707;SDS011;6418;50.824;4.718;2023-02-01T13:06:06;15.57;;;4.00;;
12707;SDS011;6418;50.824;4.718;2023-02-01T13:08:38;15.10;;;3.73;;
12707;SDS011;6418;50.824;4.718;2023-02-01T13:11:11;12.37;;;3.33;;
12707;SDS011;6418;50.824;4.718;2023-02-01T13:13:46;11.17;;;3.43;;
12707;SDS011;6418;50.824;4.718;2023-02-01T13:16:26;16.03;;;4.10;;
12707;SDS011;6418;50.824;4.718;2023-02-01T13:19:00;12.83;;;3.67;;
12707;SDS011;6418;50.824;4.718;2023-02-01T13:21:33;12.77;;;3.73;;
12707;SDS011;6418;50.824;4.718;2023-02-01T13:24:03;16.47;;;4.43;;
12707;SDS011;6418;50.824;4.718;2023-02-01T13:26:30;14.70;;;3.70;;
12707;SDS011;6418;50.824;4.718;2023-02-01T13:28:59;12.97;;;3.97;;
12707;SDS011;6418;50.824;4.718;2023-02-01T13:31:49;11.30;;;3.77;;
12707;SDS011;6418;50.824;4.718;2023-02-01T13:34:42;11.30;;;3.30;;
12707;SDS011;6418;50.824;4.718;2023-02-01T13:37:25;15.23;;;4.10;;
12707;SDS011;6418;50.824;4.718;2023-02-01T13:40:12;11.27;;;3.70;;
12707;SDS011;6418;50.824;4.718;2023-02-01T13:42:50;9.03;;;3.80;;
12707;SDS011;6418;50.824;4.718;2023-02-01T13:45:19;14.90;;;4.00;;
12707;SDS011;6418;50.824;4.718;2023-02-01T13:47:49;11.83;;;3.80;;
12707;SDS011;6418;50.824;4.718;2023-02-01T13:50:23;15.13;;;4.03;;
12707;SDS011;6418;50.824;4.718;2023-02-01T13:52:54;13.83;;;3.93;;
12707;SDS011;6418;50.824;4.718;2023-02-01T13:55:27;16.10;;;4.43;;
12707;SDS011;6418;50.824;4.718;2023-02-01T13:58:00;12.07;;;4.10;;
12707;SDS011;6418;50.824;4.718;2023-02-01T14:00:46;14.07;;;4.00;;
12707;SDS011;6418;50.824;4.718;2023-02-01T14:03:17;17.93;;;4.27;;
12707;SDS011;6418;50.824;4.718;2023-02-01T14:08:46;13.57;;;3.90;;
12707;SDS011;6418;50.824;4.718;2023-02-01T14:11:39;14.90;;;4.30;;
12707;SDS011;6418;50.824;4.718;2023-02-01T14:14:37;10.87;;;3.73;;
12707;SDS011;6418;50.824;4.718;2023-02-01T14:23:21;15.13;;;4.70;;
12707;SDS011;6418;50.824;4.718;2023-02-01T14:28:55;17.90;;;4.43;;
12707;SDS011;6418;50.824;4.718;2023-02-01T14:31:30;12.17;;;3.80;;
12707;SDS011;6418;50.824;4.718;2023-02-01T14:34:11;13.73;;;4.20;;
12707;SDS011;6418;50.824;4.718;2023-02-01T14:36:45;14.53;;;4.13;;
12707;SDS011;6418;50.824;4.718;2023-02-01T14:39:22;15.17;;;4.60;;
12707;SDS011;6418;50.824;4.718;2023-02-01T14:41:56;13.47;;;4.40;;
12707;SDS011;6418;50.824;4.718;2023-02-01T14:44:30;15.90;;;4.47;;
12707;SDS011;6418;50.824;4.718;2023-02-01T14:47:06;14.70;;;4.50;;
12707;SDS011;6418;50.824;4.718;2023-02-01T14:50:13;17.47;;;4.43;;
12707;SDS011;6418;50.824;4.718;2023-02-01T14:52:49;13.67;;;4.40;;
12707;SDS011;6418;50.824;4.718;2023-02-01T14:55:26;19.33;;;4.40;;
12707;SDS011;6418;50.824;4.718;2023-02-01T14:57:59;17.50;;;4.47;;
12707;SDS011;6418;50.824;4.718;2023-02-01T15:00:31;16.17;;;4.40;;
12707;SDS011;6418;50.824;4.718;2023-02-01T15:03:20;14.97;;;4.13;;
12707;SDS011;6418;50.824;4.718;2023-02-01T15:05:56;15.10;;;4.00;;
12707;SDS011;6418;50.824;4.718;2023-02-01T15:08:24;20.33;;;4.50;;
12707;SDS011;6418;50.824;4.718;2023-02-01T15:10:54;15.43;;;4.50;;
12707;SDS011;6418;50.824;4.718;2023-02-01T15:13:26;13.60;;;4.43;;
12707;SDS011;6418;50.824;4.718;2023-02-01T15:16:03;16.17;;;4.87;;
12707;SDS011;6418;50.824;4.718;2023-02-01T15:18:34;15.50;;;4.53;;
12707;SDS011;6418;50.824;4.718;2023-02-01T15:21:02;12.80;;;4.60;;
12707;SDS011;6418;50.824;4.718;2023-02-01T15:23:40;14.07;;;4.10;;
12707;SDS011;6418;50.824;4.718;2023-02-01T15:26:10;13.23;;;4.40;;
12707;SDS011;6418;50.824;4.718;2023-02-01T15:28:50;15.73;;;4.57;;
12707;SDS011;6418;50.824;4.718;2023-02-01T15:31:32;15.67;;;4.60;;
12707;SDS011;6418;50.824;4.718;2023-02-01T15:34:00;17.93;;;4.90;;
12707;SDS011;6418;50.824;4.718;2023-02-01T15:36:27;18.23;;;5.17;;
12707;SDS011;6418;50.824;4.718;2023-02-01T15:41:44;18.63;;;4.47;;
12707;SDS011;6418;50.824;4.718;2023-02-01T15:44:16;14.73;;;4.10;;
12707;SDS011;6418;50.824;4.718;2023-02-01T15:46:48;15.97;;;4.93;;
12707;SDS011;6418;50.824;4.718;2023-02-01T15:49:17;21.97;;;5.13;;
12707;SDS011;6418;50.824;4.718;2023-02-01T15:51:50;20.73;;;5.60;;
12707;SDS011;6418;50.824;4.718;2023-02-01T15:54:18;14.40;;;4.60;;